sensor_id;sensor_type;location;lat;lon;timestamp;P1;durP1;ratioP1;P2;durP2;ratioP2
49972;SDS011;35865;49.798;10.968;2022-08-23T00:01:37;2.40;;;1.30;;
49972;SDS011;35865;49.798;10.968;2022-08-23T00:04:07;3.15;;;1.75;;
49972;SDS011;35865;49.798;10.968;2022-08-23T00:06:36;2.65;;;1.48;;
49972;SDS011;35865;49.798;10.968;2022-08-23T00:09:02;2.55;;;1.27;;
49972;SDS011;35865;49.798;10.968;2022-08-23T00:11:32;1.65;;;1.33;;
49972;SDS011;35865;49.798;10.968;2022-08-23T00:14:02;2.53;;;1.65;;
49972;SDS011;35865;49.798;10.968;2022-08-23T00:16:31;2.22;;;1.40;;
49972;SDS011;35865;49.798;10.968;2022-08-23T00:18:58;2.45;;;1.55;;
49972;SDS011;35865;49.798;10.968;2022-08-23T00:21:25;3.60;;;2.35;;
49972;SDS011;35865;49.798;10.968;2022-08-23T00:23:53;1.58;;;1.15;;
49972;SDS011;35865;49.798;10.968;2022-08-23T00:26:20;2.50;;;1.60;;
49972;SDS011;35865;49.798;10.968;2022-08-23T00:28:46;1.92;;;1.35;;
49972;SDS011;35865;49.798;10.968;2022-08-23T00:31:13;2.60;;;1.27;;
49972;SDS011;35865;49.798;10.968;2022-08-23T00:33:39;3.95;;;1.52;;
49972;SDS011;35865;49.798;10.968;2022-08-23T00:36:06;1.95;;;1.02;;
49972;SDS011;35865;49.798;10.968;2022-08-23T00:38:33;2.30;;;1.27;;
49972;SDS011;35865;49.798;10.968;2022-08-23T00:41:00;1.98;;;1.27;;
49972;SDS011;35865;49.798;10.968;2022-08-23T00:43:28;2.00;;;1.23;;
49972;SDS011;35865;49.798;10.968;2022-08-23T00:46:21;2.60;;;1.73;;
49972;SDS011;35865;49.798;10.968;2022-08-23T00:49:17;1.85;;;1.17;;
49972;SDS011;35865;49.798;10.968;2022-08-23T00:51:46;2.35;;;1.38;;
49972;SDS011;35865;49.798;10.968;2022-08-23T00:54:18;2.30;;;1.92;;
49972;SDS011;35865;49.798;10.968;2022-08-23T00:56:47;2.33;;;1.58;;
49972;SDS011;35865;49.798;10.968;2022-08-23T00:59:15;2.47;;;1.77;;
49972;SDS011;35865;49.798;10.968;2022-08-23T01:01:41;3.15;;;2.00;;
49972;SDS011;35865;49.798;10.968;2022-08-23T01:04:09;3.55;;;2.35;;
49972;SDS011;35865;49.798;10.968;2022-08-23T01:06:39;1.63;;;1.40;;
49972;SDS011;35865;49.798;10.968;2022-08-23T01:09:13;3.53;;;1.92;;
49972;SDS011;35865;49.798;10.968;2022-08-23T01:11:44;3.30;;;1.95;;
49972;SDS011;35865;49.798;10.968;2022-08-23T01:14:16;3.22;;;2.20;;
49972;SDS011;35865;49.798;10.968;2022-08-23T01:16:48;3.33;;;2.35;;
49972;SDS011;35865;49.798;10.968;2022-08-23T01:19:18;2.63;;;1.77;;
49972;SDS011;35865;49.798;10.968;2022-08-23T01:21:53;2.55;;;1.60;;
49972;SDS011;35865;49.798;10.968;2022-08-23T01:24:27;2.90;;;1.60;;
49972;SDS011;35865;49.798;10.968;2022-08-23T01:26:54;2.92;;;1.92;;
49972;SDS011;35865;49.798;10.968;2022-08-23T01:29:21;2.90;;;1.70;;
49972;SDS011;35865;49.798;10.968;2022-08-23T01:31:48;2.78;;;1.83;;
49972;SDS011;35865;49.798;10.968;2022-08-23T01:34:15;2.97;;;1.88;;
49972;SDS011;35865;49.798;10.968;2022-08-23T01:36:42;2.85;;;1.65;;
49972;SDS011;35865;49.798;10.968;2022-08-23T01:39:09;4.07;;;2.55;;
49972;SDS011;35865;49.798;10.968;2022-08-23T01:41:38;2.90;;;2.00;;
49972;SDS011;35865;49.798;10.968;2022-08-23T01:44:05;2.75;;;1.75;;
49972;SDS011;35865;49.798;10.968;2022-08-23T01:46:33;3.20;;;2.05;;
49972;SDS011;35865;49.798;10.968;2022-08-23T01:49:01;2.47;;;1.50;;
49972;SDS011;35865;49.798;10.968;2022-08-23T01:51:28;2.17;;;1.40;;
49972;SDS011;35865;49.798;10.968;2022-08-23T01:53:55;2.40;;;1.67;;
49972;SDS011;35865;49.798;10.968;2022-08-23T01:56:21;2.25;;;1.67;;
49972;SDS011;35865;49.798;10.968;2022-08-23T01:58:50;4.40;;;1.85;;
49972;SDS011;35865;49.798;10.968;2022-08-23T02:01:17;2.65;;;1.63;;
49972;SDS011;35865;49.798;10.968;2022-08-23T02:03:44;2.00;;;1.50;;
49972;SDS011;35865;49.798;10.968;2022-08-23T02:06:10;3.90;;;1.52;;
49972;SDS011;35865;49.798;10.968;2022-08-23T02:08:37;3.53;;;1.70;;
49972;SDS011;35865;49.798;10.968;2022-08-23T02:11:22;2.83;;;1.80;;
49972;SDS011;35865;49.798;10.968;2022-08-23T02:13:51;2.25;;;1.67;;
49972;SDS011;35865;49.798;10.968;2022-08-23T02:16:21;3.05;;;1.92;;
49972;SDS011;35865;49.798;10.968;2022-08-23T02:18:48;2.47;;;1.75;;
49972;SDS011;35865;49.798;10.968;2022-08-23T02:21:15;3.75;;;2.45;;
49972;SDS011;35865;49.798;10.968;2022-08-23T02:23:43;1.73;;;1.10;;
49972;SDS011;35865;49.798;10.968;2022-08-23T02:26:09;3.03;;;1.40;;
49972;SDS011;35865;49.798;10.968;2022-08-23T02:28:36;4.20;;;2.38;;
49972;SDS011;35865;49.798;10.968;2022-08-23T02:31:04;3.25;;;1.63;;
49972;SDS011;35865;49.798;10.968;2022-08-23T02:33:31;3.28;;;2.05;;
49972;SDS011;35865;49.798;10.968;2022-08-23T02:35:58;2.20;;;1.45;;
49972;SDS011;35865;49.798;10.968;2022-08-23T02:38:25;3.00;;;2.00;;
49972;SDS011;35865;49.798;10.968;2022-08-23T02:40:51;3.90;;;3.08;;
49972;SDS011;35865;49.798;10.968;2022-08-23T02:43:18;1.98;;;1.70;;
49972;SDS011;35865;49.798;10.968;2022-08-23T02:45:44;2.55;;;1.67;;
49972;SDS011;35865;49.798;10.968;2022-08-23T02:48:12;1.95;;;1.42;;
49972;SDS011;35865;49.798;10.968;2022-08-23T02:50:38;2.30;;;1.48;;
49972;SDS011;35865;49.798;10.968;2022-08-23T02:53:05;3.03;;;1.38;;
49972;SDS011;35865;49.798;10.968;2022-08-23T02:55:32;2.30;;;1.73;;
49972;SDS011;35865;49.798;10.968;2022-08-23T02:57:59;2.83;;;1.80;;
49972;SDS011;35865;49.798;10.968;2022-08-23T03:00:25;3.00;;;2.25;;
49972;SDS011;35865;49.798;10.968;2022-08-23T03:02:52;2.28;;;1.60;;
49972;SDS011;35865;49.798;10.968;2022-08-23T03:05:20;2.63;;;1.65;;
49972;SDS011;35865;49.798;10.968;2022-08-23T03:07:47;2.58;;;1.73;;
49972;SDS011;35865;49.798;10.968;2022-08-23T03:10:13;2.20;;;1.35;;
49972;SDS011;35865;49.798;10.968;2022-08-23T03:12:41;2.20;;;1.35;;
49972;SDS011;35865;49.798;10.968;2022-08-23T03:15:07;3.28;;;2.05;;
49972;SDS011;35865;49.798;10.968;2022-08-23T03:17:35;2.55;;;1.77;;
49972;SDS011;35865;49.798;10.968;2022-08-23T03:20:02;1.88;;;1.33;;
49972;SDS011;35865;49.798;10.968;2022-08-23T03:22:31;2.70;;;1.30;;
49972;SDS011;35865;49.798;10.968;2022-08-23T03:24:58;2.78;;;1.48;;
49972;SDS011;35865;49.798;10.968;2022-08-23T03:27:25;2.65;;;1.52;;
49972;SDS011;35865;49.798;10.968;2022-08-23T03:29:52;3.50;;;1.38;;
49972;SDS011;35865;49.798;10.968;2022-08-23T03:32:18;2.40;;;1.45;;
49972;SDS011;35865;49.798;10.968;2022-08-23T03:34:45;3.38;;;2.00;;
49972;SDS011;35865;49.798;10.968;2022-08-23T03:37:11;2.13;;;1.50;;
49972;SDS011;35865;49.798;10.968;2022-08-23T03:39:39;1.20;;;1.00;;
49972;SDS011;35865;49.798;10.968;2022-08-23T03:42:06;2.17;;;1.52;;
49972;SDS011;35865;49.798;10.968;2022-08-23T03:44:33;2.72;;;1.30;;
49972;SDS011;35865;49.798;10.968;2022-08-23T03:46:59;2.53;;;1.60;;
49972;SDS011;35865;49.798;10.968;2022-08-23T03:49:26;3.28;;;1.88;;
49972;SDS011;35865;49.798;10.968;2022-08-23T03:51:53;2.55;;;1.80;;
49972;SDS011;35865;49.798;10.968;2022-08-23T03:54:20;1.83;;;1.45;;
49972;SDS011;35865;49.798;10.968;2022-08-23T03:56:52;5.93;;;1.85;;
49972;SDS011;35865;49.798;10.968;2022-08-23T03:59:20;2.20;;;1.60;;
49972;SDS011;35865;49.798;10.968;2022-08-23T04:01:46;2.17;;;1.48;;
49972;SDS011;35865;49.798;10.968;2022-08-23T04:04:13;2.95;;;1.73;;
49972;SDS011;35865;49.798;10.968;2022-08-23T04:06:39;3.53;;;2.30;;
49972;SDS011;35865;49.798;10.968;2022-08-23T04:09:06;2.55;;;1.73;;
49972;SDS011;35865;49.798;10.968;2022-08-23T04:11:32;3.72;;;1.55;;
49972;SDS011;35865;49.798;10.968;2022-08-23T04:14:00;1.80;;;1.58;;
49972;SDS011;35865;49.798;10.968;2022-08-23T04:16:27;2.42;;;1.77;;
49972;SDS011;35865;49.798;10.968;2022-08-23T04:18:57;2.55;;;1.80;;
49972;SDS011;35865;49.798;10.968;2022-08-23T04:21:23;2.95;;;1.80;;
49972;SDS011;35865;49.798;10.968;2022-08-23T04:23:50;2.85;;;1.88;;
49972;SDS011;35865;49.798;10.968;2022-08-23T04:26:16;2.45;;;1.77;;
49972;SDS011;35865;49.798;10.968;2022-08-23T04:28:43;3.67;;;2.55;;
49972;SDS011;35865;49.798;10.968;2022-08-23T04:31:11;2.13;;;1.67;;
49972;SDS011;35865;49.798;10.968;2022-08-23T04:33:38;2.70;;;1.52;;
49972;SDS011;35865;49.798;10.968;2022-08-23T04:36:05;2.15;;;1.45;;
49972;SDS011;35865;49.798;10.968;2022-08-23T04:38:32;3.22;;;1.80;;
49972;SDS011;35865;49.798;10.968;2022-08-23T04:40:58;4.55;;;2.38;;
49972;SDS011;35865;49.798;10.968;2022-08-23T04:43:43;2.88;;;1.90;;
49972;SDS011;35865;49.798;10.968;2022-08-23T04:46:11;3.28;;;1.88;;
49972;SDS011;35865;49.798;10.968;2022-08-23T04:48:39;3.30;;;1.63;;
49972;SDS011;35865;49.798;10.968;2022-08-23T04:51:06;2.88;;;1.83;;
49972;SDS011;35865;49.798;10.968;2022-08-23T04:53:33;3.33;;;2.40;;
49972;SDS011;35865;49.798;10.968;2022-08-23T04:55:59;3.15;;;1.83;;
49972;SDS011;35865;49.798;10.968;2022-08-23T04:58:27;2.97;;;2.28;;
49972;SDS011;35865;49.798;10.968;2022-08-23T05:00:53;4.18;;;2.45;;
49972;SDS011;35865;49.798;10.968;2022-08-23T05:03:21;4.80;;;3.25;;
49972;SDS011;35865;49.798;10.968;2022-08-23T05:05:48;4.82;;;3.53;;
49972;SDS011;35865;49.798;10.968;2022-08-23T05:08:15;3.25;;;2.30;;
49972;SDS011;35865;49.798;10.968;2022-08-23T05:10:42;4.15;;;3.03;;
49972;SDS011;35865;49.798;10.968;2022-08-23T05:13:08;4.03;;;3.13;;
49972;SDS011;35865;49.798;10.968;2022-08-23T05:15:35;4.38;;;2.35;;
49972;SDS011;35865;49.798;10.968;2022-08-23T05:18:01;4.00;;;2.65;;
49972;SDS011;35865;49.798;10.968;2022-08-23T05:20:29;4.30;;;2.20;;
49972;SDS011;35865;49.798;10.968;2022-08-23T05:22:56;4.50;;;2.83;;
49972;SDS011;35865;49.798;10.968;2022-08-23T05:25:24;4.07;;;2.83;;
49972;SDS011;35865;49.798;10.968;2022-08-23T05:28:12;4.78;;;3.72;;
49972;SDS011;35865;49.798;10.968;2022-08-23T05:30:38;4.88;;;2.90;;
49972;SDS011;35865;49.798;10.968;2022-08-23T05:33:05;3.90;;;2.50;;
49972;SDS011;35865;49.798;10.968;2022-08-23T05:35:33;3.63;;;2.63;;
49972;SDS011;35865;49.798;10.968;2022-08-23T05:38:00;4.00;;;2.97;;
49972;SDS011;35865;49.798;10.968;2022-08-23T05:40:27;4.43;;;3.08;;
49972;SDS011;35865;49.798;10.968;2022-08-23T05:42:54;3.95;;;2.88;;
49972;SDS011;35865;49.798;10.968;2022-08-23T05:45:20;3.60;;;2.35;;
49972;SDS011;35865;49.798;10.968;2022-08-23T05:47:46;4.32;;;2.60;;
49972;SDS011;35865;49.798;10.968;2022-08-23T05:50:13;4.15;;;2.35;;
49972;SDS011;35865;49.798;10.968;2022-08-23T05:52:41;3.55;;;2.30;;
49972;SDS011;35865;49.798;10.968;2022-08-23T05:55:07;4.57;;;2.42;;
49972;SDS011;35865;49.798;10.968;2022-08-23T05:57:34;3.72;;;2.70;;
49972;SDS011;35865;49.798;10.968;2022-08-23T06:00:02;3.42;;;2.53;;
49972;SDS011;35865;49.798;10.968;2022-08-23T06:02:29;4.85;;;2.60;;
49972;SDS011;35865;49.798;10.968;2022-08-23T06:04:56;3.70;;;2.53;;
49972;SDS011;35865;49.798;10.968;2022-08-23T06:07:22;3.40;;;2.33;;
49972;SDS011;35865;49.798;10.968;2022-08-23T06:09:50;3.22;;;2.55;;
49972;SDS011;35865;49.798;10.968;2022-08-23T06:12:18;3.50;;;2.22;;
49972;SDS011;35865;49.798;10.968;2022-08-23T06:14:45;3.20;;;2.15;;
49972;SDS011;35865;49.798;10.968;2022-08-23T06:17:11;3.67;;;2.38;;
49972;SDS011;35865;49.798;10.968;2022-08-23T06:19:38;3.58;;;2.67;;
49972;SDS011;35865;49.798;10.968;2022-08-23T06:22:04;3.67;;;2.40;;
49972;SDS011;35865;49.798;10.968;2022-08-23T06:24:30;3.30;;;2.30;;
49972;SDS011;35865;49.798;10.968;2022-08-23T06:26:58;4.18;;;2.33;;
49972;SDS011;35865;49.798;10.968;2022-08-23T06:29:25;2.83;;;1.90;;
49972;SDS011;35865;49.798;10.968;2022-08-23T06:31:52;3.05;;;2.08;;
49972;SDS011;35865;49.798;10.968;2022-08-23T06:34:19;3.03;;;2.25;;
49972;SDS011;35865;49.798;10.968;2022-08-23T06:36:47;3.72;;;2.28;;
49972;SDS011;35865;49.798;10.968;2022-08-23T06:39:16;2.75;;;2.00;;
49972;SDS011;35865;49.798;10.968;2022-08-23T06:41:44;3.80;;;2.05;;
49972;SDS011;35865;49.798;10.968;2022-08-23T06:44:14;3.42;;;2.28;;
49972;SDS011;35865;49.798;10.968;2022-08-23T06:46:41;2.75;;;2.17;;
49972;SDS011;35865;49.798;10.968;2022-08-23T06:49:08;3.42;;;2.08;;
49972;SDS011;35865;49.798;10.968;2022-08-23T06:51:35;3.13;;;2.00;;
49972;SDS011;35865;49.798;10.968;2022-08-23T06:54:04;3.25;;;2.08;;
49972;SDS011;35865;49.798;10.968;2022-08-23T06:56:33;3.67;;;1.95;;
49972;SDS011;35865;49.798;10.968;2022-08-23T06:59:00;3.22;;;2.50;;
49972;SDS011;35865;49.798;10.968;2022-08-23T07:01:32;2.30;;;1.77;;
49972;SDS011;35865;49.798;10.968;2022-08-23T07:04:01;2.35;;;1.70;;
49972;SDS011;35865;49.798;10.968;2022-08-23T07:06:30;2.58;;;1.88;;
49972;SDS011;35865;49.798;10.968;2022-08-23T07:08:56;4.40;;;1.52;;
49972;SDS011;35865;49.798;10.968;2022-08-23T07:11:24;2.22;;;1.70;;
49972;SDS011;35865;49.798;10.968;2022-08-23T07:13:51;3.00;;;1.80;;
49972;SDS011;35865;49.798;10.968;2022-08-23T07:16:19;2.03;;;1.65;;
49972;SDS011;35865;49.798;10.968;2022-08-23T07:18:46;2.60;;;1.70;;
49972;SDS011;35865;49.798;10.968;2022-08-23T07:21:14;2.33;;;1.50;;
49972;SDS011;35865;49.798;10.968;2022-08-23T07:23:41;2.05;;;1.55;;
49972;SDS011;35865;49.798;10.968;2022-08-23T07:26:10;2.17;;;1.50;;
49972;SDS011;35865;49.798;10.968;2022-08-23T07:28:37;2.30;;;1.55;;
49972;SDS011;35865;49.798;10.968;2022-08-23T07:31:05;1.48;;;1.25;;
49972;SDS011;35865;49.798;10.968;2022-08-23T07:33:32;2.33;;;1.67;;
49972;SDS011;35865;49.798;10.968;2022-08-23T07:36:00;1.55;;;1.30;;
49972;SDS011;35865;49.798;10.968;2022-08-23T07:38:26;1.80;;;1.30;;
49972;SDS011;35865;49.798;10.968;2022-08-23T07:40:53;1.20;;;1.10;;
49972;SDS011;35865;49.798;10.968;2022-08-23T07:43:19;3.25;;;1.27;;
49972;SDS011;35865;49.798;10.968;2022-08-23T07:45:46;2.08;;;1.30;;
49972;SDS011;35865;49.798;10.968;2022-08-23T07:48:13;1.70;;;1.20;;
49972;SDS011;35865;49.798;10.968;2022-08-23T07:50:40;2.13;;;1.10;;
49972;SDS011;35865;49.798;10.968;2022-08-23T07:53:08;1.70;;;1.20;;
49972;SDS011;35865;49.798;10.968;2022-08-23T07:55:37;1.30;;;1.00;;
49972;SDS011;35865;49.798;10.968;2022-08-23T07:58:04;1.15;;;1.00;;
49972;SDS011;35865;49.798;10.968;2022-08-23T08:00:30;1.90;;;1.38;;
49972;SDS011;35865;49.798;10.968;2022-08-23T08:02:57;1.85;;;1.05;;
49972;SDS011;35865;49.798;10.968;2022-08-23T08:05:24;1.92;;;1.08;;
49972;SDS011;35865;49.798;10.968;2022-08-23T08:07:50;1.42;;;1.00;;
49972;SDS011;35865;49.798;10.968;2022-08-23T08:10:18;1.58;;;1.02;;
49972;SDS011;35865;49.798;10.968;2022-08-23T08:12:45;1.58;;;1.08;;
49972;SDS011;35865;49.798;10.968;2022-08-23T08:15:11;1.83;;;1.27;;
49972;SDS011;35865;49.798;10.968;2022-08-23T08:17:37;2.15;;;1.35;;
49972;SDS011;35865;49.798;10.968;2022-08-23T08:20:04;0.90;;;0.80;;
49972;SDS011;35865;49.798;10.968;2022-08-23T08:22:32;1.25;;;0.82;;
49972;SDS011;35865;49.798;10.968;2022-08-23T08:24:59;1.35;;;1.17;;
49972;SDS011;35865;49.798;10.968;2022-08-23T08:27:27;1.35;;;1.00;;
49972;SDS011;35865;49.798;10.968;2022-08-23T08:29:53;1.75;;;1.05;;
49972;SDS011;35865;49.798;10.968;2022-08-23T08:32:20;2.05;;;1.30;;
49972;SDS011;35865;49.798;10.968;2022-08-23T08:34:46;2.10;;;1.30;;
49972;SDS011;35865;49.798;10.968;2022-08-23T08:37:13;2.00;;;1.17;;
49972;SDS011;35865;49.798;10.968;2022-08-23T08:39:39;1.15;;;0.93;;
49972;SDS011;35865;49.798;10.968;2022-08-23T08:42:15;1.77;;;1.20;;
49972;SDS011;35865;49.798;10.968;2022-08-23T08:44:52;1.50;;;1.10;;
49972;SDS011;35865;49.798;10.968;2022-08-23T08:47:28;1.75;;;1.10;;
49972;SDS011;35865;49.798;10.968;2022-08-23T08:49:59;1.65;;;1.35;;
49972;SDS011;35865;49.798;10.968;2022-08-23T08:52:31;1.42;;;1.00;;
49972;SDS011;35865;49.798;10.968;2022-08-23T08:55:02;1.20;;;1.05;;
49972;SDS011;35865;49.798;10.968;2022-08-23T08:57:35;1.63;;;1.10;;
49972;SDS011;35865;49.798;10.968;2022-08-23T09:00:07;1.17;;;0.90;;
49972;SDS011;35865;49.798;10.968;2022-08-23T09:02:37;0.80;;;0.80;;
49972;SDS011;35865;49.798;10.968;2022-08-23T09:05:06;1.40;;;1.02;;
49972;SDS011;35865;49.798;10.968;2022-08-23T09:07:39;1.60;;;1.13;;
49972;SDS011;35865;49.798;10.968;2022-08-23T09:10:23;0.77;;;0.77;;
49972;SDS011;35865;49.798;10.968;2022-08-23T09:13:02;0.85;;;0.70;;
49972;SDS011;35865;49.798;10.968;2022-08-23T09:15:45;1.23;;;0.90;;
49972;SDS011;35865;49.798;10.968;2022-08-23T09:18:23;0.60;;;0.60;;
49972;SDS011;35865;49.798;10.968;2022-08-23T09:20:50;1.10;;;0.90;;
49972;SDS011;35865;49.798;10.968;2022-08-23T09:23:19;0.85;;;0.80;;
49972;SDS011;35865;49.798;10.968;2022-08-23T09:25:49;1.02;;;0.90;;
49972;SDS011;35865;49.798;10.968;2022-08-23T09:28:17;1.35;;;0.88;;
49972;SDS011;35865;49.798;10.968;2022-08-23T09:30:47;0.88;;;0.80;;
49972;SDS011;35865;49.798;10.968;2022-08-23T09:33:19;0.80;;;0.80;;
49972;SDS011;35865;49.798;10.968;2022-08-23T09:36:01;1.38;;;0.82;;
49972;SDS011;35865;49.798;10.968;2022-08-23T09:38:31;1.10;;;0.70;;
49972;SDS011;35865;49.798;10.968;2022-08-23T09:40:58;1.25;;;0.80;;
49972;SDS011;35865;49.798;10.968;2022-08-23T09:43:26;0.70;;;0.70;;
49972;SDS011;35865;49.798;10.968;2022-08-23T09:45:58;1.23;;;0.70;;
49972;SDS011;35865;49.798;10.968;2022-08-23T09:48:33;0.80;;;0.68;;
49972;SDS011;35865;49.798;10.968;2022-08-23T09:51:04;0.60;;;0.60;;
49972;SDS011;35865;49.798;10.968;2022-08-23T09:53:36;1.15;;;1.02;;
49972;SDS011;35865;49.798;10.968;2022-08-23T09:56:09;0.88;;;0.80;;
49972;SDS011;35865;49.798;10.968;2022-08-23T09:58:38;0.68;;;0.60;;
49972;SDS011;35865;49.798;10.968;2022-08-23T10:01:09;0.60;;;0.60;;
49972;SDS011;35865;49.798;10.968;2022-08-23T10:03:38;0.75;;;0.70;;
49972;SDS011;35865;49.798;10.968;2022-08-23T10:06:06;0.60;;;0.60;;
49972;SDS011;35865;49.798;10.968;2022-08-23T10:08:36;3.17;;;1.63;;
49972;SDS011;35865;49.798;10.968;2022-08-23T10:11:06;0.65;;;0.60;;
49972;SDS011;35865;49.798;10.968;2022-08-23T10:13:39;0.73;;;0.70;;
49972;SDS011;35865;49.798;10.968;2022-08-23T10:16:11;1.40;;;0.90;;
49972;SDS011;35865;49.798;10.968;2022-08-23T10:18:47;1.52;;;0.77;;
49972;SDS011;35865;49.798;10.968;2022-08-23T10:21:21;0.70;;;0.65;;
49972;SDS011;35865;49.798;10.968;2022-08-23T10:23:55;0.70;;;0.68;;
49972;SDS011;35865;49.798;10.968;2022-08-23T10:26:34;0.75;;;0.68;;
49972;SDS011;35865;49.798;10.968;2022-08-23T10:29:06;1.00;;;0.75;;
49972;SDS011;35865;49.798;10.968;2022-08-23T10:32:01;0.50;;;0.50;;
49972;SDS011;35865;49.798;10.968;2022-08-23T10:34:40;0.95;;;0.85;;
49972;SDS011;35865;49.798;10.968;2022-08-23T10:37:23;0.73;;;0.73;;
49972;SDS011;35865;49.798;10.968;2022-08-23T10:40:02;0.98;;;0.70;;
49972;SDS011;35865;49.798;10.968;2022-08-23T10:42:37;0.73;;;0.60;;
49972;SDS011;35865;49.798;10.968;2022-08-23T10:45:13;1.02;;;0.60;;
49972;SDS011;35865;49.798;10.968;2022-08-23T10:47:49;1.27;;;0.93;;
49972;SDS011;35865;49.798;10.968;2022-08-23T10:50:25;0.70;;;0.70;;
49972;SDS011;35865;49.798;10.968;2022-08-23T10:52:56;0.65;;;0.60;;
49972;SDS011;35865;49.798;10.968;2022-08-23T10:55:32;0.70;;;0.70;;
49972;SDS011;35865;49.798;10.968;2022-08-23T10:58:20;0.70;;;0.70;;
49972;SDS011;35865;49.798;10.968;2022-08-23T11:00:49;0.80;;;0.60;;
49972;SDS011;35865;49.798;10.968;2022-08-23T11:03:20;0.65;;;0.50;;
49972;SDS011;35865;49.798;10.968;2022-08-23T11:08:57;0.63;;;0.63;;
49972;SDS011;35865;49.798;10.968;2022-08-23T11:11:42;0.65;;;0.65;;
49972;SDS011;35865;49.798;10.968;2022-08-23T11:14:12;0.60;;;0.60;;
49972;SDS011;35865;49.798;10.968;2022-08-23T11:16:54;0.52;;;0.52;;
49972;SDS011;35865;49.798;10.968;2022-08-23T11:22:14;0.70;;;0.70;;
49972;SDS011;35865;49.798;10.968;2022-08-23T11:24:56;0.50;;;0.50;;
49972;SDS011;35865;49.798;10.968;2022-08-23T11:27:26;1.85;;;1.05;;
49972;SDS011;35865;49.798;10.968;2022-08-23T11:29:55;0.60;;;0.60;;
49972;SDS011;35865;49.798;10.968;2022-08-23T11:32:27;0.80;;;0.73;;
49972;SDS011;35865;49.798;10.968;2022-08-23T11:38:00;0.47;;;0.47;;
49972;SDS011;35865;49.798;10.968;2022-08-23T11:40:41;0.77;;;0.70;;
49972;SDS011;35865;49.798;10.968;2022-08-23T11:43:23;0.60;;;0.60;;
49972;SDS011;35865;49.798;10.968;2022-08-23T11:48:52;0.50;;;0.50;;
49972;SDS011;35865;49.798;10.968;2022-08-23T11:51:38;0.63;;;0.50;;
49972;SDS011;35865;49.798;10.968;2022-08-23T11:54:17;0.40;;;0.40;;
49972;SDS011;35865;49.798;10.968;2022-08-23T11:57:04;0.47;;;0.43;;
49972;SDS011;35865;49.798;10.968;2022-08-23T12:00:00;0.88;;;0.57;;
49972;SDS011;35865;49.798;10.968;2022-08-23T12:05:40;0.55;;;0.55;;
49972;SDS011;35865;49.798;10.968;2022-08-23T12:08:31;0.75;;;0.60;;
49972;SDS011;35865;49.798;10.968;2022-08-23T12:11:13;0.60;;;0.55;;
49972;SDS011;35865;49.798;10.968;2022-08-23T12:13:49;0.60;;;0.50;;
49972;SDS011;35865;49.798;10.968;2022-08-23T12:19:08;1.00;;;0.70;;
49972;SDS011;35865;49.798;10.968;2022-08-23T12:21:45;0.77;;;0.63;;
49972;SDS011;35865;49.798;10.968;2022-08-23T12:24:20;0.80;;;0.63;;
49972;SDS011;35865;49.798;10.968;2022-08-23T12:26:57;0.50;;;0.50;;
49972;SDS011;35865;49.798;10.968;2022-08-23T12:29:30;1.23;;;0.60;;
49972;SDS011;35865;49.798;10.968;2022-08-23T12:32:08;1.27;;;0.60;;
49972;SDS011;35865;49.798;10.968;2022-08-23T12:34:43;0.70;;;0.43;;
49972;SDS011;35865;49.798;10.968;2022-08-23T12:37:20;0.43;;;0.43;;
49972;SDS011;35865;49.798;10.968;2022-08-23T12:39:56;1.17;;;0.60;;
49972;SDS011;35865;49.798;10.968;2022-08-23T12:42:26;0.52;;;0.52;;
49972;SDS011;35865;49.798;10.968;2022-08-23T12:44:59;0.63;;;0.50;;
49972;SDS011;35865;49.798;10.968;2022-08-23T12:47:31;0.93;;;0.90;;
49972;SDS011;35865;49.798;10.968;2022-08-23T12:49:59;0.57;;;0.57;;
49972;SDS011;35865;49.798;10.968;2022-08-23T12:52:30;0.85;;;0.70;;
49972;SDS011;35865;49.798;10.968;2022-08-23T12:55:01;0.57;;;0.57;;
49972;SDS011;35865;49.798;10.968;2022-08-23T12:57:30;0.82;;;0.60;;
49972;SDS011;35865;49.798;10.968;2022-08-23T13:00:03;0.70;;;0.70;;
49972;SDS011;35865;49.798;10.968;2022-08-23T13:02:35;0.60;;;0.60;;
49972;SDS011;35865;49.798;10.968;2022-08-23T13:05:05;0.52;;;0.50;;
49972;SDS011;35865;49.798;10.968;2022-08-23T13:07:35;0.50;;;0.50;;
49972;SDS011;35865;49.798;10.968;2022-08-23T13:10:05;0.88;;;0.50;;
49972;SDS011;35865;49.798;10.968;2022-08-23T13:12:34;0.80;;;0.70;;
49972;SDS011;35865;49.798;10.968;2022-08-23T13:15:01;0.73;;;0.70;;
49972;SDS011;35865;49.798;10.968;2022-08-23T13:17:30;0.63;;;0.50;;
49972;SDS011;35865;49.798;10.968;2022-08-23T13:20:18;1.20;;;0.82;;
49972;SDS011;35865;49.798;10.968;2022-08-23T13:22:57;1.95;;;0.82;;
49972;SDS011;35865;49.798;10.968;2022-08-23T13:25:28;0.45;;;0.45;;
49972;SDS011;35865;49.798;10.968;2022-08-23T13:27:57;0.77;;;0.60;;
49972;SDS011;35865;49.798;10.968;2022-08-23T13:30:25;1.35;;;0.70;;
49972;SDS011;35865;49.798;10.968;2022-08-23T13:35:46;1.20;;;0.80;;
49972;SDS011;35865;49.798;10.968;2022-08-23T13:38:21;1.17;;;0.60;;
49972;SDS011;35865;49.798;10.968;2022-08-23T13:40:55;0.60;;;0.60;;
49972;SDS011;35865;49.798;10.968;2022-08-23T13:43:26;1.08;;;0.63;;
49972;SDS011;35865;49.798;10.968;2022-08-23T13:45:58;1.48;;;0.80;;
49972;SDS011;35865;49.798;10.968;2022-08-23T13:48:26;0.93;;;0.60;;
49972;SDS011;35865;49.798;10.968;2022-08-23T13:53:44;0.88;;;0.68;;
49972;SDS011;35865;49.798;10.968;2022-08-23T13:56:13;0.90;;;0.52;;
49972;SDS011;35865;49.798;10.968;2022-08-23T13:58:40;0.73;;;0.63;;
49972;SDS011;35865;49.798;10.968;2022-08-23T14:01:09;0.75;;;0.50;;
49972;SDS011;35865;49.798;10.968;2022-08-23T14:03:40;1.00;;;0.80;;
49972;SDS011;35865;49.798;10.968;2022-08-23T14:06:07;0.73;;;0.50;;
49972;SDS011;35865;49.798;10.968;2022-08-23T14:08:33;1.20;;;0.70;;
49972;SDS011;35865;49.798;10.968;2022-08-23T14:11:00;1.65;;;0.80;;
49972;SDS011;35865;49.798;10.968;2022-08-23T14:13:28;0.90;;;0.70;;
49972;SDS011;35865;49.798;10.968;2022-08-23T14:15:55;0.68;;;0.57;;
49972;SDS011;35865;49.798;10.968;2022-08-23T14:18:27;1.10;;;0.50;;
49972;SDS011;35865;49.798;10.968;2022-08-23T14:20:53;1.13;;;0.70;;
49972;SDS011;35865;49.798;10.968;2022-08-23T14:23:20;1.48;;;0.70;;
49972;SDS011;35865;49.798;10.968;2022-08-23T14:25:47;1.13;;;0.70;;
49972;SDS011;35865;49.798;10.968;2022-08-23T14:28:16;0.57;;;0.43;;
49972;SDS011;35865;49.798;10.968;2022-08-23T14:30:44;0.57;;;0.57;;
49972;SDS011;35865;49.798;10.968;2022-08-23T14:33:11;0.70;;;0.55;;
49972;SDS011;35865;49.798;10.968;2022-08-23T14:35:38;1.17;;;0.75;;
49972;SDS011;35865;49.798;10.968;2022-08-23T14:38:05;1.13;;;0.70;;
49972;SDS011;35865;49.798;10.968;2022-08-23T14:40:32;1.15;;;0.88;;
49972;SDS011;35865;49.798;10.968;2022-08-23T14:43:00;0.80;;;0.70;;
49972;SDS011;35865;49.798;10.968;2022-08-23T14:45:29;0.75;;;0.60;;
49972;SDS011;35865;49.798;10.968;2022-08-23T14:47:57;0.60;;;0.40;;
49972;SDS011;35865;49.798;10.968;2022-08-23T14:50:23;0.57;;;0.57;;
49972;SDS011;35865;49.798;10.968;2022-08-23T14:52:49;1.42;;;0.70;;
49972;SDS011;35865;49.798;10.968;2022-08-23T14:55:16;1.27;;;0.60;;
49972;SDS011;35865;49.798;10.968;2022-08-23T14:57:42;1.05;;;0.80;;
49972;SDS011;35865;49.798;10.968;2022-08-23T15:00:09;0.85;;;0.77;;
49972;SDS011;35865;49.798;10.968;2022-08-23T15:02:41;1.00;;;0.60;;
49972;SDS011;35865;49.798;10.968;2022-08-23T15:05:09;0.50;;;0.50;;
49972;SDS011;35865;49.798;10.968;2022-08-23T15:07:36;1.02;;;0.68;;
49972;SDS011;35865;49.798;10.968;2022-08-23T15:10:03;1.27;;;0.70;;
49972;SDS011;35865;49.798;10.968;2022-08-23T15:12:31;1.95;;;0.65;;